Warrenton, Georgia
Current Conditions -  °F | °C
As of 5:35 PM on Sunday 23 Nov 2014 (Local Time) from KHQU Reporting Station
Overcast Overcast  
Wind Chill: 65°   Ceiling: 200
Heat Index: 65°   Visibility: 4mi
Dew Point: 65°   Wind: 7mph
Humidity: 100%   Direction: 150°SSE
Pressure: 29.8"   Gusts: NA
Location:  33.41°N, 82.66°W
Report Text: KHQU 232235Z AUTO 15006KT 4SM OVC002 19/19 A2980 RMK AO1 T01850185
Loading
Personal Weather Stations






























Interactive Weather Map New forecast layout! Learn more

10-Day Weather Forecast

Advertisements
Track Severe Weather on mobile